Viimsi — ES2084 — position and weather

sailwx.info

Track history (hours):
 
Tides and Currents Weather Stations Pressure Air Temp Water Temp Dewpoint Dewpoint Depression Visibility Wind Speed Wind Dir Waves Ship Positions

Viimsi

Last reported at 2016-Dec-01 13:33 UTC. Time now 2016-Dec-03 02:32 UTC.
Position N 59°28' E 024°39'.

Length 78 m; draft 4.5 m.

Type: Ship. MMSI: 276297000.

Date/timePositionNaut miles runAvg speedWind from/ knotsBaromVisibWave heightAir tempDewpointWater temp
2016-Dec-01 13:33N 59°28' E 024°39'3 2.9
2016-Dec-01 12:33N 59°28' E 024°44'1 1.0
2016-Dec-01 11:33N 59°28' E 024°43'0 0.0
2016-Dec-01 10:33N 59°28' E 024°43'0 0.0
2016-Dec-01 09:33N 59°28' E 024°43'0 0.0
2016-Dec-01 08:34N 59°28' E 024°43'0 0.0
2016-Dec-01 07:33N 59°28' E 024°43'0 0.0
2016-Dec-01 06:33N 59°28' E 024°43'0 0.0
2016-Dec-01 05:33N 59°28' E 024°43'0 0.0
2016-Dec-01 04:31N 59°28' E 024°43'0 0.0
2016-Dec-01 03:33N 59°27' E 024°43'0 0.0
2016-Dec-01 02:34N 59°28' E 024°43'0 0.0
2016-Dec-01 01:33N 59°28' E 024°43'0 0.0
2016-Dec-01 00:33N 59°28' E 024°43'0 0.0
2016-Nov-30 23:33N 59°27' E 024°43'0 0.1
2016-Nov-30 22:34N 59°28' E 024°43'9 8.7
2016-Nov-30 21:33N 59°36' E 024°40'7 7.0
2016-Nov-30 20:33N 59°34' E 024°53'1 0.2
2016-Nov-30 16:33N 59°34' E 024°53'2 2.0
2016-Nov-30 15:33N 59°35' E 024°49'0 0.0
2016-Nov-30 14:33N 59°35' E 024°49'0 0.0
2016-Nov-30 13:33N 59°35' E 024°49'0 0.0
2016-Nov-30 12:33N 59°35' E 024°49'0 0.0
2016-Nov-30 11:33N 59°35' E 024°49'0 0.0
2016-Nov-30 10:34N 59°35' E 024°49'0 0.2
2016-Nov-30 09:33N 59°34' E 024°49'0 0.1
2016-Nov-30 08:33N 59°34' E 024°49'2 1.8
2016-Nov-30 07:33N 59°34' E 024°52'4 0.3
2016-Nov-29 18:20N 59°32' E 024°57'810.0
2016-Nov-29 17:33N 59°37' E 024°46'7 7.3
2016-Nov-29 16:33N 59°30' E 024°41'3 2.9
2016-Nov-29 15:33N 59°27' E 024°39'0 0.0
2016-Nov-29 13:12N 59°27' E 024°39'0 0.0
2016-Nov-29 12:30N 59°27' E 024°39'0 0.0
2016-Nov-29 11:33N 59°27' E 024°39'0 0.0
2016-Nov-29 10:33N 59°27' E 024°39'0 0.0
2016-Nov-29 09:33N 59°27' E 024°39'0 0.0
2016-Nov-29 08:33N 59°27' E 024°39'0 0.0
2016-Nov-29 07:34N 59°27' E 024°39'0 0.0
2016-Nov-29 06:33N 59°27' E 024°39'0 0.0
2016-Nov-29 05:33N 59°27' E 024°39'0 0.4
2016-Nov-29 04:33N 59°28' E 024°39'0 0.0
2016-Nov-29 03:33N 59°28' E 024°39'0 0.0
2016-Nov-29 02:33N 59°28' E 024°39'0 0.0
2016-Nov-29 01:33N 59°28' E 024°39'0 0.0
2016-Nov-29 00:32N 59°28' E 024°39'0 0.0
2016-Nov-28 23:33N 59°28' E 024°39'3 2.5
2016-Nov-28 22:32N 59°30' E 024°37'9 9.0
2016-Nov-28 21:33N 59°38' E 024°47'8 7.5
2016-Nov-28 20:29N 59°36' E 025°02'0 0.0
2016-Nov-28 19:32N 59°36' E 025°02'0 0.0
2016-Nov-28 18:24N 59°36' E 025°02'1 0.1
2016-Nov-28 14:30N 59°36' E 025°01'0 0.0
2016-Nov-28 13:33N 59°36' E 025°01'0 0.0
2016-Nov-28 12:33N 59°36' E 025°01'1 1.4
2016-Nov-28 11:33N 59°36' E 024°58'9 8.7
2016-Nov-28 10:33N 59°37' E 024°41'8 7.8
2016-Nov-28 09:32N 59°29' E 024°45'2 1.9
2016-Nov-28 08:33N 59°28' E 024°42'0 0.0
2016-Nov-28 07:33N 59°28' E 024°42'0 0.0
2016-Nov-28 06:33N 59°28' E 024°42'0 0.0
2016-Nov-28 05:33N 59°28' E 024°42'0 0.0
2016-Nov-28 04:33N 59°28' E 024°42'0 0.0
2016-Nov-28 03:33N 59°28' E 024°42'3 2.8
2016-Nov-28 02:33N 59°30' E 024°44'8 7.8
2016-Nov-28 01:33N 59°38' E 024°45'8 8.2
2016-Nov-28 00:33N 59°36' E 025°00'0 0.2
2016-Nov-27 23:29N 59°36' E 025°01'0 0.0
2016-Nov-27 22:32N 59°36' E 025°01'0 0.0
2016-Nov-27 21:29N 59°36' E 025°01'0 0.0
2016-Nov-27 20:32N 59°36' E 025°01'0 0.0
2016-Nov-27 19:32N 59°36' E 025°01'0 0.0
2016-Nov-27 18:33N 59°36' E 025°01'3 1.5
2016-Nov-27 16:33N 59°35' E 024°55'3 3.2
2016-Nov-27 15:33N 59°35' E 024°49'0 0.1
2016-Nov-27 14:33N 59°35' E 024°49'0 0.0
2016-Nov-27 13:33N 59°35' E 024°49'0 0.1
2016-Nov-27 12:32N 59°35' E 024°49'0 0.1
2016-Nov-27 11:33N 59°35' E 024°49'0 0.2
2016-Nov-27 10:33N 59°35' E 024°48'4 3.9
2016-Nov-27 09:33N 59°36' E 024°41'7 6.9
2016-Nov-27 08:32N 59°29' E 024°44'2 2.1
2016-Nov-27 07:33N 59°28' E 024°43'0 0.0
2016-Nov-27 06:33N 59°28' E 024°43'0 0.0
2016-Nov-27 05:33N 59°28' E 024°43'0 0.0
2016-Nov-27 04:33N 59°28' E 024°43'0 0.0
2016-Nov-27 03:33N 59°28' E 024°43'0 0.0
2016-Nov-27 02:33N 59°28' E 024°43'0 0.0
2016-Nov-27 01:33N 59°27' E 024°43'0 0.0
2016-Nov-27 00:33N 59°27' E 024°43'0 0.0
2016-Nov-26 23:33N 59°27' E 024°43'0 0.1
2016-Nov-26 22:33N 59°28' E 024°43'8 8.1
2016-Nov-26 21:33N 59°36' E 024°40'4 4.3
2016-Nov-26 20:31N 59°35' E 024°49'0 0.1
2016-Nov-26 19:33N 59°35' E 024°49'0 0.0
2016-Nov-26 18:33N 59°35' E 024°49'0 0.0
2016-Nov-26 17:33N 59°35' E 024°49'1 0.5
2016-Nov-26 16:33N 59°35' E 024°49'0 0.3
2016-Nov-26 15:34N 59°35' E 024°50'0 0.0
2016-Nov-26 14:33N 59°35' E 024°50'0 0.0
2016-Nov-26 13:33N 59°35' E 024°50'0 0.0
2016-Nov-26 12:33N 59°35' E 024°50'0 0.1
2016-Nov-26 11:33N 59°35' E 024°50'1 0.6
2016-Nov-26 10:33N 59°35' E 024°49'0 0.0
2016-Nov-26 09:33N 59°35' E 024°49'0 0.3
2016-Nov-26 08:33N 59°35' E 024°49'0 0.0
2016-Nov-26 07:33N 59°35' E 024°49'4 3.9
2016-Nov-26 06:33N 59°37' E 024°44'8 7.9
2016-Nov-26 05:33N 59°29' E 024°46'3 2.6
2016-Nov-26 04:33N 59°27' E 024°43'0 0.0
2016-Nov-26 03:33N 59°28' E 024°43'0 0.0
2016-Nov-26 02:33N 59°28' E 024°43'0 0.0
2016-Nov-26 01:33N 59°27' E 024°43'0 0.0
2016-Nov-26 00:33N 59°28' E 024°43'0 0.0
2016-Nov-25 23:33N 59°28' E 024°43'0 0.0
2016-Nov-25 22:33N 59°28' E 024°43'0 0.0
2016-Nov-25 21:33N 59°27' E 024°43'6 5.7
2016-Nov-25 20:33N 59°33' E 024°42'5 4.8
2016-Nov-25 19:33N 59°36' E 024°50'4 0.8
2016-Nov-25 14:33N 59°33' E 024°55'3 3.4
2016-Nov-25 13:33N 59°35' E 024°50'0 0.0
2016-Nov-25 12:33N 59°35' E 024°50'0 0.0
2016-Nov-25 11:33N 59°35' E 024°50'0 0.0
2016-Nov-25 10:33N 59°35' E 024°50'1 0.3
2016-Nov-25 08:33N 59°35' E 024°48'0 0.0
2016-Nov-25 07:33N 59°35' E 024°48'0 0.0
2016-Nov-25 06:33N 59°35' E 024°48'0 0.0
2016-Nov-25 05:33N 59°35' E 024°48'0 0.5
2016-Nov-25 04:33N 59°35' E 024°49'0 0.0
2016-Nov-25 03:33N 59°35' E 024°49'0 0.0
2016-Nov-25 02:33N 59°35' E 024°49'0 0.0
2016-Nov-25 01:33N 59°35' E 024°49'0 0.4
2016-Nov-25 00:33N 59°34' E 024°50'0 0.0
2016-Nov-24 23:33N 59°34' E 024°50'0 0.0
2016-Nov-24 22:33N 59°34' E 024°50'0 0.0
2016-Nov-24 21:33N 59°34' E 024°50'0 0.0
2016-Nov-24 20:33N 59°34' E 024°50'4 4.1
2016-Nov-24 19:33N 59°37' E 024°44'7 7.1
2016-Nov-24 18:33N 59°30' E 024°45'3 3.1
2016-Nov-24 17:33N 59°27' E 024°43'0 0.0
2016-Nov-24 16:33N 59°28' E 024°43'0 0.0
2016-Nov-24 15:33N 59°28' E 024°43'0 0.0
2016-Nov-24 14:33N 59°28' E 024°43'0 0.0
2016-Nov-24 13:31N 59°28' E 024°43'0 0.0
2016-Nov-24 12:33N 59°28' E 024°43'0 0.0
2016-Nov-24 11:33N 59°28' E 024°43'0 0.0
2016-Nov-24 10:33N 59°28' E 024°43'0 0.0
2016-Nov-24 09:29N 59°28' E 024°43'0 0.0
2016-Nov-24 08:33N 59°28' E 024°43'0 0.3
2016-Nov-24 07:33N 59°28' E 024°43'0 0.0
2016-Nov-24 06:33N 59°28' E 024°43'0 0.0
2016-Nov-24 05:33N 59°28' E 024°43'0 0.0
2016-Nov-24 04:33N 59°28' E 024°43'0 0.0
2016-Nov-24 03:33N 59°28' E 024°43'0 0.0
2016-Nov-24 02:32N 59°28' E 024°43'0 0.0
2016-Nov-24 01:33N 59°28' E 024°43'0 0.0
2016-Nov-24 00:31N 59°28' E 024°43'0 0.0
2016-Nov-23 23:32N 59°28' E 024°43'0 0.0
2016-Nov-23 22:33N 59°28' E 024°43'0 0.1
2016-Nov-23 21:33N 59°28' E 024°43'8 7.7
2016-Nov-23 20:33N 59°35' E 024°40'5 4.7
2016-Nov-23 19:33N 59°35' E 024°50'0 0.0
2016-Nov-23 18:33N 59°35' E 024°50'0 0.0
2016-Nov-23 17:33N 59°35' E 024°50'4 4.3
2016-Nov-23 16:33N 59°37' E 024°42'9 8.7
2016-Nov-23 15:33N 59°29' E 024°38'2 1.7
2016-Nov-23 14:31N 59°27' E 024°38'0 0.0
2016-Nov-23 13:33N 59°27' E 024°38'4 3.2
2016-Nov-23 12:26N 59°29' E 024°32'0 0.1
2016-Nov-23 10:12N 59°29' E 024°31'0 0.2
2016-Nov-23 09:33N 59°29' E 024°31'0 0.3
2016-Nov-23 08:33N 59°29' E 024°32'0 0.0
2016-Nov-23 07:34N 59°29' E 024°32'0 0.0
2016-Nov-23 06:33N 59°29' E 024°32'0 0.0
2016-Nov-23 02:30N 59°29' E 024°32'0 0.0
2016-Nov-22 22:29N 59°29' E 024°32'0 0.0
2016-Nov-22 20:30N 59°29' E 024°32'0 0.0
2016-Nov-22 19:28N 59°29' E 024°32'0 0.0
2016-Nov-22 17:31N 59°29' E 024°32'0 0.2
2016-Nov-22 15:06N 59°29' E 024°32'0 0.0
2016-Nov-22 14:32N 59°29' E 024°32'0 0.0
2016-Nov-22 13:11N 59°29' E 024°32'2 0.6
2016-Nov-22 10:17N 59°31' E 024°31'0 0.0
2016-Nov-22 09:33N 59°31' E 024°31'0 0.0
2016-Nov-22 08:27N 59°31' E 024°31'0 0.0
2016-Nov-22 07:26N 59°31' E 024°31'2 0.9
2016-Nov-22 05:33N 59°30' E 024°34'5 5.2
2016-Nov-22 04:33N 59°28' E 024°43'0 0.0
2016-Nov-22 03:33N 59°28' E 024°43'0 0.0
2016-Nov-22 02:33N 59°28' E 024°43'0 0.0
2016-Nov-21 23:33N 59°28' E 024°43'0 0.0
2016-Nov-21 21:33N 59°28' E 024°43'0 0.0
2016-Nov-21 17:33N 59°28' E 024°43'0 0.0
2016-Nov-21 14:33N 59°28' E 024°43'0 0.0
2016-Nov-21 13:34N 59°28' E 024°43'  
Track history (hours):
 
Tides and Currents Weather Stations Pressure Air Temp Water Temp Dewpoint Dewpoint Depression Visibility Wind Speed Wind Dir Waves Ship Positions

Viimsi

Last reported at 2016-Dec-01 13:33 UTC. Time now 2016-Dec-03 02:32 UTC.
Position N 59°28' E 024°39'.

Length 78 m; draft 4.5 m.

Type: Ship. MMSI: 276297000.

Date/timePositionNaut miles runAvg speedWind from/ knotsBaromVisibWave heightAir tempDewpointWater temp
2016-Dec-01 13:33N 59°28' E 024°39'3 2.9
2016-Dec-01 12:33N 59°28' E 024°44'1 1.0
2016-Dec-01 11:33N 59°28' E 024°43'0 0.0
2016-Dec-01 10:33N 59°28' E 024°43'0 0.0
2016-Dec-01 09:33N 59°28' E 024°43'0 0.0
2016-Dec-01 08:34N 59°28' E 024°43'0 0.0
2016-Dec-01 07:33N 59°28' E 024°43'0 0.0
2016-Dec-01 06:33N 59°28' E 024°43'0 0.0
2016-Dec-01 05:33N 59°28' E 024°43'0 0.0
2016-Dec-01 04:31N 59°28' E 024°43'0 0.0
2016-Dec-01 03:33N 59°27' E 024°43'0 0.0
2016-Dec-01 02:34N 59°28' E 024°43'0 0.0
2016-Dec-01 01:33N 59°28' E 024°43'0 0.0
2016-Dec-01 00:33N 59°28' E 024°43'0 0.0
2016-Nov-30 23:33N 59°27' E 024°43'0 0.1
2016-Nov-30 22:34N 59°28' E 024°43'9 8.7
2016-Nov-30 21:33N 59°36' E 024°40'7 7.0
2016-Nov-30 20:33N 59°34' E 024°53'1 0.2
2016-Nov-30 16:33N 59°34' E 024°53'2 2.0
2016-Nov-30 15:33N 59°35' E 024°49'0 0.0
2016-Nov-30 14:33N 59°35' E 024°49'0 0.0
2016-Nov-30 13:33N 59°35' E 024°49'0 0.0
2016-Nov-30 12:33N 59°35' E 024°49'0 0.0
2016-Nov-30 11:33N 59°35' E 024°49'0 0.0
2016-Nov-30 10:34N 59°35' E 024°49'0 0.2
2016-Nov-30 09:33N 59°34' E 024°49'0 0.1
2016-Nov-30 08:33N 59°34' E 024°49'2 1.8
2016-Nov-30 07:33N 59°34' E 024°52'4 0.3
2016-Nov-29 18:20N 59°32' E 024°57'810.0
2016-Nov-29 17:33N 59°37' E 024°46'7 7.3
2016-Nov-29 16:33N 59°30' E 024°41'3 2.9
2016-Nov-29 15:33N 59°27' E 024°39'0 0.0
2016-Nov-29 13:12N 59°27' E 024°39'0 0.0
2016-Nov-29 12:30N 59°27' E 024°39'0 0.0
2016-Nov-29 11:33N 59°27' E 024°39'0 0.0
2016-Nov-29 10:33N 59°27' E 024°39'0 0.0
2016-Nov-29 09:33N 59°27' E 024°39'0 0.0
2016-Nov-29 08:33N 59°27' E 024°39'0 0.0
2016-Nov-29 07:34N 59°27' E 024°39'0 0.0
2016-Nov-29 06:33N 59°27' E 024°39'0 0.0
2016-Nov-29 05:33N 59°27' E 024°39'0 0.4
2016-Nov-29 04:33N 59°28' E 024°39'0 0.0
2016-Nov-29 03:33N 59°28' E 024°39'0 0.0
2016-Nov-29 02:33N 59°28' E 024°39'0 0.0
2016-Nov-29 01:33N 59°28' E 024°39'0 0.0
2016-Nov-29 00:32N 59°28' E 024°39'0 0.0
2016-Nov-28 23:33N 59°28' E 024°39'3 2.5
2016-Nov-28 22:32N 59°30' E 024°37'9 9.0
2016-Nov-28 21:33N 59°38' E 024°47'8 7.5
2016-Nov-28 20:29N 59°36' E 025°02'0 0.0
2016-Nov-28 19:32N 59°36' E 025°02'0 0.0
2016-Nov-28 18:24N 59°36' E 025°02'1 0.1
2016-Nov-28 14:30N 59°36' E 025°01'0 0.0
2016-Nov-28 13:33N 59°36' E 025°01'0 0.0
2016-Nov-28 12:33N 59°36' E 025°01'1 1.4
2016-Nov-28 11:33N 59°36' E 024°58'9 8.7
2016-Nov-28 10:33N 59°37' E 024°41'8 7.8
2016-Nov-28 09:32N 59°29' E 024°45'2 1.9
2016-Nov-28 08:33N 59°28' E 024°42'0 0.0
2016-Nov-28 07:33N 59°28' E 024°42'0 0.0
2016-Nov-28 06:33N 59°28' E 024°42'0 0.0
2016-Nov-28 05:33N 59°28' E 024°42'0 0.0
2016-Nov-28 04:33N 59°28' E 024°42'0 0.0
2016-Nov-28 03:33N 59°28' E 024°42'3 2.8
2016-Nov-28 02:33N 59°30' E 024°44'8 7.8
2016-Nov-28 01:33N 59°38' E 024°45'8 8.2
2016-Nov-28 00:33N 59°36' E 025°00'0 0.2
2016-Nov-27 23:29N 59°36' E 025°01'0 0.0
2016-Nov-27 22:32N 59°36' E 025°01'0 0.0
2016-Nov-27 21:29N 59°36' E 025°01'0 0.0
2016-Nov-27 20:32N 59°36' E 025°01'0 0.0
2016-Nov-27 19:32N 59°36' E 025°01'0 0.0
2016-Nov-27 18:33N 59°36' E 025°01'3 1.5
2016-Nov-27 16:33N 59°35' E 024°55'3 3.2
2016-Nov-27 15:33N 59°35' E 024°49'0 0.1
2016-Nov-27 14:33N 59°35' E 024°49'0 0.0
2016-Nov-27 13:33N 59°35' E 024°49'0 0.1
2016-Nov-27 12:32N 59°35' E 024°49'0 0.1
2016-Nov-27 11:33N 59°35' E 024°49'0 0.2
2016-Nov-27 10:33N 59°35' E 024°48'4 3.9
2016-Nov-27 09:33N 59°36' E 024°41'7 6.9
2016-Nov-27 08:32N 59°29' E 024°44'2 2.1
2016-Nov-27 07:33N 59°28' E 024°43'0 0.0
2016-Nov-27 06:33N 59°28' E 024°43'0 0.0
2016-Nov-27 05:33N 59°28' E 024°43'0 0.0
2016-Nov-27 04:33N 59°28' E 024°43'0 0.0
2016-Nov-27 03:33N 59°28' E 024°43'0 0.0
2016-Nov-27 02:33N 59°28' E 024°43'0 0.0
2016-Nov-27 01:33N 59°27' E 024°43'0 0.0
2016-Nov-27 00:33N 59°27' E 024°43'0 0.0
2016-Nov-26 23:33N 59°27' E 024°43'0 0.1
2016-Nov-26 22:33N 59°28' E 024°43'8 8.1
2016-Nov-26 21:33N 59°36' E 024°40'4 4.3
2016-Nov-26 20:31N 59°35' E 024°49'0 0.1
2016-Nov-26 19:33N 59°35' E 024°49'0 0.0
2016-Nov-26 18:33N 59°35' E 024°49'0 0.0
2016-Nov-26 17:33N 59°35' E 024°49'1 0.5
2016-Nov-26 16:33N 59°35' E 024°49'0 0.3
2016-Nov-26 15:34N 59°35' E 024°50'0 0.0
2016-Nov-26 14:33N 59°35' E 024°50'0 0.0
2016-Nov-26 13:33N 59°35' E 024°50'0 0.0
2016-Nov-26 12:33N 59°35' E 024°50'0 0.1
2016-Nov-26 11:33N 59°35' E 024°50'1 0.6
2016-Nov-26 10:33N 59°35' E 024°49'0 0.0
2016-Nov-26 09:33N 59°35' E 024°49'0 0.3
2016-Nov-26 08:33N 59°35' E 024°49'0 0.0
2016-Nov-26 07:33N 59°35' E 024°49'4 3.9
2016-Nov-26 06:33N 59°37' E 024°44'8 7.9
2016-Nov-26 05:33N 59°29' E 024°46'3 2.6
2016-Nov-26 04:33N 59°27' E 024°43'0 0.0
2016-Nov-26 03:33N 59°28' E 024°43'0 0.0
2016-Nov-26 02:33N 59°28' E 024°43'0 0.0
2016-Nov-26 01:33N 59°27' E 024°43'0 0.0
2016-Nov-26 00:33N 59°28' E 024°43'0 0.0
2016-Nov-25 23:33N 59°28' E 024°43'0 0.0
2016-Nov-25 22:33N 59°28' E 024°43'0 0.0
2016-Nov-25 21:33N 59°27' E 024°43'6 5.7
2016-Nov-25 20:33N 59°33' E 024°42'5 4.8
2016-Nov-25 19:33N 59°36' E 024°50'4 0.8
2016-Nov-25 14:33N 59°33' E 024°55'3 3.4
2016-Nov-25 13:33N 59°35' E 024°50'0 0.0
2016-Nov-25 12:33N 59°35' E 024°50'0 0.0
2016-Nov-25 11:33N 59°35' E 024°50'0 0.0
2016-Nov-25 10:33N 59°35' E 024°50'1 0.3
2016-Nov-25 08:33N 59°35' E 024°48'0 0.0
2016-Nov-25 07:33N 59°35' E 024°48'0 0.0
2016-Nov-25 06:33N 59°35' E 024°48'0 0.0
2016-Nov-25 05:33N 59°35' E 024°48'0 0.5
2016-Nov-25 04:33N 59°35' E 024°49'0 0.0
2016-Nov-25 03:33N 59°35' E 024°49'0 0.0
2016-Nov-25 02:33N 59°35' E 024°49'0 0.0
2016-Nov-25 01:33N 59°35' E 024°49'0 0.4
2016-Nov-25 00:33N 59°34' E 024°50'0 0.0
2016-Nov-24 23:33N 59°34' E 024°50'0 0.0
2016-Nov-24 22:33N 59°34' E 024°50'0 0.0
2016-Nov-24 21:33N 59°34' E 024°50'0 0.0
2016-Nov-24 20:33N 59°34' E 024°50'4 4.1
2016-Nov-24 19:33N 59°37' E 024°44'7 7.1
2016-Nov-24 18:33N 59°30' E 024°45'3 3.1
2016-Nov-24 17:33N 59°27' E 024°43'0 0.0
2016-Nov-24 16:33N 59°28' E 024°43'0 0.0
2016-Nov-24 15:33N 59°28' E 024°43'0 0.0
2016-Nov-24 14:33N 59°28' E 024°43'0 0.0
2016-Nov-24 13:31N 59°28' E 024°43'0 0.0
2016-Nov-24 12:33N 59°28' E 024°43'0 0.0
2016-Nov-24 11:33N 59°28' E 024°43'0 0.0
2016-Nov-24 10:33N 59°28' E 024°43'0 0.0
2016-Nov-24 09:29N 59°28' E 024°43'0 0.0
2016-Nov-24 08:33N 59°28' E 024°43'0 0.3
2016-Nov-24 07:33N 59°28' E 024°43'0 0.0
2016-Nov-24 06:33N 59°28' E 024°43'0 0.0
2016-Nov-24 05:33N 59°28' E 024°43'0 0.0
2016-Nov-24 04:33N 59°28' E 024°43'0 0.0
2016-Nov-24 03:33N 59°28' E 024°43'0 0.0
2016-Nov-24 02:32N 59°28' E 024°43'0 0.0
2016-Nov-24 01:33N 59°28' E 024°43'0 0.0
2016-Nov-24 00:31N 59°28' E 024°43'0 0.0
2016-Nov-23 23:32N 59°28' E 024°43'0 0.0
2016-Nov-23 22:33N 59°28' E 024°43'0 0.1
2016-Nov-23 21:33N 59°28' E 024°43'8 7.7
2016-Nov-23 20:33N 59°35' E 024°40'5 4.7
2016-Nov-23 19:33N 59°35' E 024°50'0 0.0
2016-Nov-23 18:33N 59°35' E 024°50'0 0.0
2016-Nov-23 17:33N 59°35' E 024°50'4 4.3
2016-Nov-23 16:33N 59°37' E 024°42'9 8.7
2016-Nov-23 15:33N 59°29' E 024°38'2 1.7
2016-Nov-23 14:31N 59°27' E 024°38'0 0.0
2016-Nov-23 13:33N 59°27' E 024°38'4 3.2
2016-Nov-23 12:26N 59°29' E 024°32'0 0.1
2016-Nov-23 10:12N 59°29' E 024°31'0 0.2
2016-Nov-23 09:33N 59°29' E 024°31'0 0.3
2016-Nov-23 08:33N 59°29' E 024°32'0 0.0
2016-Nov-23 07:34N 59°29' E 024°32'0 0.0
2016-Nov-23 06:33N 59°29' E 024°32'0 0.0
2016-Nov-23 02:30N 59°29' E 024°32'0 0.0
2016-Nov-22 22:29N 59°29' E 024°32'0 0.0
2016-Nov-22 20:30N 59°29' E 024°32'0 0.0
2016-Nov-22 19:28N 59°29' E 024°32'0 0.0
2016-Nov-22 17:31N 59°29' E 024°32'0 0.2
2016-Nov-22 15:06N 59°29' E 024°32'0 0.0
2016-Nov-22 14:32N 59°29' E 024°32'0 0.0
2016-Nov-22 13:11N 59°29' E 024°32'2 0.6
2016-Nov-22 10:17N 59°31' E 024°31'0 0.0
2016-Nov-22 09:33N 59°31' E 024°31'0 0.0
2016-Nov-22 08:27N 59°31' E 024°31'0 0.0
2016-Nov-22 07:26N 59°31' E 024°31'2 0.9
2016-Nov-22 05:33N 59°30' E 024°34'5 5.2
2016-Nov-22 04:33N 59°28' E 024°43'0 0.0
2016-Nov-22 03:33N 59°28' E 024°43'0 0.0
2016-Nov-22 02:33N 59°28' E 024°43'0 0.0
2016-Nov-21 23:33N 59°28' E 024°43'0 0.0
2016-Nov-21 21:33N 59°28' E 024°43'0 0.0
2016-Nov-21 17:33N 59°28' E 024°43'0 0.0
2016-Nov-21 14:33N 59°28' E 024°43'0 0.0
2016-Nov-21 13:34N 59°28' E 024°43'  

Dump ship's entire track history